sensor_id;sensor_type;location;lat;lon;timestamp;P1;durP1;ratioP1;P2;durP2;ratioP2
29242;SDS011;21110;48.036;15.780;2023-04-06T00:01:35;9.20;;;1.70;;
29242;SDS011;21110;48.036;15.780;2023-04-06T00:04:01;8.65;;;1.48;;
29242;SDS011;21110;48.036;15.780;2023-04-06T00:06:26;11.57;;;1.75;;
29242;SDS011;21110;48.036;15.780;2023-04-06T00:08:52;7.03;;;1.40;;
29242;SDS011;21110;48.036;15.780;2023-04-06T00:11:18;8.95;;;1.40;;
29242;SDS011;21110;48.036;15.780;2023-04-06T00:13:44;10.13;;;1.30;;
29242;SDS011;21110;48.036;15.780;2023-04-06T00:16:10;6.07;;;1.30;;
29242;SDS011;21110;48.036;15.780;2023-04-06T00:18:36;5.22;;;1.48;;
29242;SDS011;21110;48.036;15.780;2023-04-06T00:21:02;5.95;;;1.40;;
29242;SDS011;21110;48.036;15.780;2023-04-06T00:23:28;4.05;;;1.40;;
29242;SDS011;21110;48.036;15.780;2023-04-06T00:25:54;4.78;;;1.35;;
29242;SDS011;21110;48.036;15.780;2023-04-06T00:28:20;3.20;;;1.33;;
29242;SDS011;21110;48.036;15.780;2023-04-06T00:30:50;5.00;;;1.20;;
29242;SDS011;21110;48.036;15.780;2023-04-06T00:33:17;6.97;;;1.30;;
29242;SDS011;21110;48.036;15.780;2023-04-06T00:35:44;3.42;;;1.55;;
29242;SDS011;21110;48.036;15.780;2023-04-06T00:38:10;3.20;;;1.40;;
29242;SDS011;21110;48.036;15.780;2023-04-06T00:40:36;3.90;;;1.40;;
29242;SDS011;21110;48.036;15.780;2023-04-06T00:43:02;17.65;;;1.70;;
29242;SDS011;21110;48.036;15.780;2023-04-06T00:45:28;11.90;;;1.42;;
29242;SDS011;21110;48.036;15.780;2023-04-06T00:47:53;15.32;;;1.80;;
29242;SDS011;21110;48.036;15.780;2023-04-06T00:50:19;9.60;;;1.48;;
29242;SDS011;21110;48.036;15.780;2023-04-06T00:52:45;11.00;;;1.65;;
29242;SDS011;21110;48.036;15.780;2023-04-06T00:55:10;5.72;;;1.50;;
29242;SDS011;21110;48.036;15.780;2023-04-06T00:57:36;4.80;;;1.40;;
29242;SDS011;21110;48.036;15.780;2023-04-06T01:00:02;4.75;;;1.48;;
29242;SDS011;21110;48.036;15.780;2023-04-06T01:02:28;18.02;;;1.63;;
29242;SDS011;21110;48.036;15.780;2023-04-06T01:04:54;6.63;;;1.58;;
29242;SDS011;21110;48.036;15.780;2023-04-06T01:07:20;6.15;;;1.20;;
29242;SDS011;21110;48.036;15.780;2023-04-06T01:09:46;7.82;;;1.20;;
29242;SDS011;21110;48.036;15.780;2023-04-06T01:12:11;5.93;;;1.25;;
29242;SDS011;21110;48.036;15.780;2023-04-06T01:14:37;5.22;;;1.30;;
29242;SDS011;21110;48.036;15.780;2023-04-06T01:17:03;6.05;;;1.50;;
29242;SDS011;21110;48.036;15.780;2023-04-06T01:19:28;6.53;;;1.40;;
29242;SDS011;21110;48.036;15.780;2023-04-06T01:21:54;4.05;;;1.63;;
29242;SDS011;21110;48.036;15.780;2023-04-06T01:24:20;5.00;;;1.20;;
29242;SDS011;21110;48.036;15.780;2023-04-06T01:26:46;3.60;;;1.30;;
29242;SDS011;21110;48.036;15.780;2023-04-06T01:29:12;3.90;;;1.15;;
29242;SDS011;21110;48.036;15.780;2023-04-06T01:31:38;5.30;;;1.20;;
29242;SDS011;21110;48.036;15.780;2023-04-06T01:34:04;5.75;;;1.15;;
29242;SDS011;21110;48.036;15.780;2023-04-06T01:36:30;6.70;;;1.30;;
29242;SDS011;21110;48.036;15.780;2023-04-06T01:38:56;3.83;;;1.13;;
29242;SDS011;21110;48.036;15.780;2023-04-06T01:41:22;4.70;;;1.23;;
29242;SDS011;21110;48.036;15.780;2023-04-06T01:43:47;4.93;;;1.15;;
29242;SDS011;21110;48.036;15.780;2023-04-06T01:46:14;1.92;;;1.13;;
29242;SDS011;21110;48.036;15.780;2023-04-06T01:48:40;2.28;;;1.20;;
29242;SDS011;21110;48.036;15.780;2023-04-06T01:51:06;4.32;;;1.30;;
29242;SDS011;21110;48.036;15.780;2023-04-06T01:53:32;3.75;;;1.10;;
29242;SDS011;21110;48.036;15.780;2023-04-06T01:55:58;1.58;;;1.23;;
29242;SDS011;21110;48.036;15.780;2023-04-06T01:58:23;3.63;;;1.30;;
29242;SDS011;21110;48.036;15.780;2023-04-06T02:00:49;3.05;;;1.20;;
29242;SDS011;21110;48.036;15.780;2023-04-06T02:03:15;1.90;;;1.00;;
29242;SDS011;21110;48.036;15.780;2023-04-06T02:05:40;3.80;;;1.00;;
29242;SDS011;21110;48.036;15.780;2023-04-06T02:08:06;1.73;;;1.10;;
29242;SDS011;21110;48.036;15.780;2023-04-06T02:10:33;2.13;;;1.00;;
29242;SDS011;21110;48.036;15.780;2023-04-06T02:12:59;3.65;;;1.17;;
29242;SDS011;21110;48.036;15.780;2023-04-06T02:15:25;1.90;;;1.00;;
29242;SDS011;21110;48.036;15.780;2023-04-06T02:17:51;3.03;;;1.02;;
29242;SDS011;21110;48.036;15.780;2023-04-06T02:20:17;14.75;;;1.48;;
29242;SDS011;21110;48.036;15.780;2023-04-06T02:22:43;6.30;;;1.30;;
29242;SDS011;21110;48.036;15.780;2023-04-06T02:25:09;6.78;;;1.20;;
29242;SDS011;21110;48.036;15.780;2023-04-06T02:27:34;4.32;;;1.00;;
29242;SDS011;21110;48.036;15.780;2023-04-06T02:30:01;9.05;;;1.40;;
29242;SDS011;21110;48.036;15.780;2023-04-06T02:32:30;7.90;;;1.50;;
29242;SDS011;21110;48.036;15.780;2023-04-06T02:34:55;5.55;;;1.20;;
29242;SDS011;21110;48.036;15.780;2023-04-06T02:37:21;9.93;;;1.40;;
29242;SDS011;21110;48.036;15.780;2023-04-06T02:39:48;3.75;;;1.20;;
29242;SDS011;21110;48.036;15.780;2023-04-06T02:42:15;4.38;;;1.27;;
29242;SDS011;21110;48.036;15.780;2023-04-06T02:44:41;3.30;;;1.30;;
29242;SDS011;21110;48.036;15.780;2023-04-06T02:47:07;4.38;;;1.10;;
29242;SDS011;21110;48.036;15.780;2023-04-06T02:49:33;3.67;;;1.10;;
29242;SDS011;21110;48.036;15.780;2023-04-06T02:51:59;5.82;;;1.10;;
29242;SDS011;21110;48.036;15.780;2023-04-06T02:54:25;3.80;;;1.20;;
29242;SDS011;21110;48.036;15.780;2023-04-06T02:56:50;5.97;;;1.10;;
29242;SDS011;21110;48.036;15.780;2023-04-06T02:59:16;1.88;;;1.00;;
29242;SDS011;21110;48.036;15.780;2023-04-06T03:01:42;7.90;;;1.20;;
29242;SDS011;21110;48.036;15.780;2023-04-06T03:04:07;3.22;;;1.00;;
29242;SDS011;21110;48.036;15.780;2023-04-06T03:06:33;4.50;;;1.10;;
29242;SDS011;21110;48.036;15.780;2023-04-06T03:08:59;6.93;;;1.20;;
29242;SDS011;21110;48.036;15.780;2023-04-06T03:11:25;3.25;;;0.90;;
29242;SDS011;21110;48.036;15.780;2023-04-06T03:13:51;6.85;;;1.23;;
29242;SDS011;21110;48.036;15.780;2023-04-06T03:16:17;2.00;;;1.00;;
29242;SDS011;21110;48.036;15.780;2023-04-06T03:18:43;11.93;;;1.30;;
29242;SDS011;21110;48.036;15.780;2023-04-06T03:21:10;2.45;;;1.00;;
29242;SDS011;21110;48.036;15.780;2023-04-06T03:23:35;4.78;;;1.30;;
29242;SDS011;21110;48.036;15.780;2023-04-06T03:26:01;1.20;;;1.00;;
29242;SDS011;21110;48.036;15.780;2023-04-06T03:28:27;2.72;;;1.02;;
29242;SDS011;21110;48.036;15.780;2023-04-06T03:30:53;19.63;;;1.63;;
29242;SDS011;21110;48.036;15.780;2023-04-06T03:33:19;13.95;;;1.52;;
29242;SDS011;21110;48.036;15.780;2023-04-06T03:35:45;19.27;;;1.50;;
29242;SDS011;21110;48.036;15.780;2023-04-06T03:38:10;11.50;;;1.33;;
29242;SDS011;21110;48.036;15.780;2023-04-06T03:40:36;11.43;;;1.58;;
29242;SDS011;21110;48.036;15.780;2023-04-06T03:43:03;13.57;;;1.30;;
29242;SDS011;21110;48.036;15.780;2023-04-06T03:45:29;4.32;;;1.35;;
29242;SDS011;21110;48.036;15.780;2023-04-06T03:47:55;5.68;;;1.02;;
29242;SDS011;21110;48.036;15.780;2023-04-06T03:50:20;7.78;;;1.30;;
29242;SDS011;21110;48.036;15.780;2023-04-06T03:52:46;3.10;;;1.00;;
29242;SDS011;21110;48.036;15.780;2023-04-06T03:55:12;7.90;;;1.20;;
29242;SDS011;21110;48.036;15.780;2023-04-06T03:57:37;5.47;;;1.40;;
29242;SDS011;21110;48.036;15.780;2023-04-06T04:00:03;6.40;;;1.27;;
29242;SDS011;21110;48.036;15.780;2023-04-06T04:02:29;5.68;;;1.30;;
29242;SDS011;21110;48.036;15.780;2023-04-06T04:04:55;1.88;;;1.00;;
29242;SDS011;21110;48.036;15.780;2023-04-06T04:07:20;7.15;;;1.20;;
29242;SDS011;21110;48.036;15.780;2023-04-06T04:09:46;3.08;;;1.00;;
29242;SDS011;21110;48.036;15.780;2023-04-06T04:12:12;2.35;;;1.10;;
29242;SDS011;21110;48.036;15.780;2023-04-06T04:14:39;4.05;;;1.15;;
29242;SDS011;21110;48.036;15.780;2023-04-06T04:17:05;3.67;;;1.15;;
29242;SDS011;21110;48.036;15.780;2023-04-06T04:19:30;3.38;;;1.17;;
29242;SDS011;21110;48.036;15.780;2023-04-06T04:21:56;2.90;;;1.05;;
29242;SDS011;21110;48.036;15.780;2023-04-06T04:24:22;2.60;;;1.20;;
29242;SDS011;21110;48.036;15.780;2023-04-06T04:26:47;2.13;;;1.20;;
29242;SDS011;21110;48.036;15.780;2023-04-06T04:29:13;4.75;;;0.90;;
29242;SDS011;21110;48.036;15.780;2023-04-06T04:31:39;2.55;;;1.10;;
29242;SDS011;21110;48.036;15.780;2023-04-06T04:34:05;1.52;;;1.20;;
29242;SDS011;21110;48.036;15.780;2023-04-06T04:36:31;3.13;;;1.10;;
29242;SDS011;21110;48.036;15.780;2023-04-06T04:38:57;2.88;;;1.20;;
29242;SDS011;21110;48.036;15.780;2023-04-06T04:41:23;6.82;;;1.10;;
29242;SDS011;21110;48.036;15.780;2023-04-06T04:43:49;2.47;;;1.00;;
29242;SDS011;21110;48.036;15.780;2023-04-06T04:46:15;7.25;;;1.10;;
29242;SDS011;21110;48.036;15.780;2023-04-06T04:48:40;4.63;;;1.13;;
29242;SDS011;21110;48.036;15.780;2023-04-06T04:51:06;8.98;;;1.10;;
29242;SDS011;21110;48.036;15.780;2023-04-06T04:53:32;11.05;;;1.40;;
29242;SDS011;21110;48.036;15.780;2023-04-06T04:55:57;8.95;;;1.30;;
29242;SDS011;21110;48.036;15.780;2023-04-06T04:58:23;4.72;;;1.20;;
29242;SDS011;21110;48.036;15.780;2023-04-06T05:00:49;6.00;;;1.23;;
29242;SDS011;21110;48.036;15.780;2023-04-06T05:03:24;13.75;;;1.20;;
29242;SDS011;21110;48.036;15.780;2023-04-06T05:05:51;8.15;;;1.15;;
29242;SDS011;21110;48.036;15.780;2023-04-06T05:08:17;9.35;;;1.27;;
29242;SDS011;21110;48.036;15.780;2023-04-06T05:10:42;10.07;;;1.40;;
29242;SDS011;21110;48.036;15.780;2023-04-06T05:13:09;8.63;;;1.30;;
29242;SDS011;21110;48.036;15.780;2023-04-06T05:15:35;9.13;;;1.25;;
29242;SDS011;21110;48.036;15.780;2023-04-06T05:18:03;5.47;;;1.30;;
29242;SDS011;21110;48.036;15.780;2023-04-06T05:20:29;7.55;;;1.20;;
29242;SDS011;21110;48.036;15.780;2023-04-06T05:22:55;4.75;;;1.23;;
29242;SDS011;21110;48.036;15.780;2023-04-06T05:25:21;13.15;;;1.45;;
29242;SDS011;21110;48.036;15.780;2023-04-06T05:27:47;3.95;;;1.10;;
29242;SDS011;21110;48.036;15.780;2023-04-06T05:30:13;7.07;;;1.40;;
29242;SDS011;21110;48.036;15.780;2023-04-06T05:32:39;3.03;;;1.08;;
29242;SDS011;21110;48.036;15.780;2023-04-06T05:35:05;2.47;;;0.90;;
29242;SDS011;21110;48.036;15.780;2023-04-06T05:37:31;4.72;;;1.40;;
29242;SDS011;21110;48.036;15.780;2023-04-06T05:39:56;5.05;;;1.20;;
29242;SDS011;21110;48.036;15.780;2023-04-06T05:42:22;5.97;;;1.10;;
29242;SDS011;21110;48.036;15.780;2023-04-06T05:44:48;4.15;;;1.38;;
29242;SDS011;21110;48.036;15.780;2023-04-06T05:47:14;8.93;;;1.30;;
29242;SDS011;21110;48.036;15.780;2023-04-06T05:49:41;6.70;;;1.35;;
29242;SDS011;21110;48.036;15.780;2023-04-06T05:52:08;9.93;;;1.40;;
29242;SDS011;21110;48.036;15.780;2023-04-06T05:54:34;12.60;;;1.40;;
29242;SDS011;21110;48.036;15.780;2023-04-06T05:57:01;8.65;;;1.20;;
29242;SDS011;21110;48.036;15.780;2023-04-06T05:59:28;5.57;;;1.10;;
29242;SDS011;21110;48.036;15.780;2023-04-06T06:01:55;3.55;;;1.17;;
29242;SDS011;21110;48.036;15.780;2023-04-06T06:04:21;5.45;;;1.30;;
29242;SDS011;21110;48.036;15.780;2023-04-06T06:06:46;8.30;;;1.50;;
29242;SDS011;21110;48.036;15.780;2023-04-06T06:09:12;5.43;;;1.50;;
29242;SDS011;21110;48.036;15.780;2023-04-06T06:11:38;5.82;;;1.25;;
29242;SDS011;21110;48.036;15.780;2023-04-06T06:14:03;4.40;;;1.23;;
29242;SDS011;21110;48.036;15.780;2023-04-06T06:16:29;4.05;;;1.20;;
29242;SDS011;21110;48.036;15.780;2023-04-06T06:18:55;4.15;;;1.05;;
29242;SDS011;21110;48.036;15.780;2023-04-06T06:21:20;9.10;;;1.30;;
29242;SDS011;21110;48.036;15.780;2023-04-06T06:23:46;19.90;;;1.67;;
29242;SDS011;21110;48.036;15.780;2023-04-06T06:26:14;15.90;;;1.70;;
29242;SDS011;21110;48.036;15.780;2023-04-06T06:28:40;11.20;;;1.30;;
29242;SDS011;21110;48.036;15.780;2023-04-06T06:31:05;6.90;;;1.30;;
29242;SDS011;21110;48.036;15.780;2023-04-06T06:33:32;3.88;;;1.35;;
29242;SDS011;21110;48.036;15.780;2023-04-06T06:35:57;6.85;;;1.63;;
29242;SDS011;21110;48.036;15.780;2023-04-06T06:38:23;3.25;;;1.50;;
29242;SDS011;21110;48.036;15.780;2023-04-06T06:40:49;3.17;;;1.27;;
29242;SDS011;21110;48.036;15.780;2023-04-06T06:43:15;2.58;;;1.45;;
29242;SDS011;21110;48.036;15.780;2023-04-06T06:45:42;3.28;;;1.50;;
29242;SDS011;21110;48.036;15.780;2023-04-06T06:48:08;4.68;;;1.75;;
29242;SDS011;21110;48.036;15.780;2023-04-06T06:50:34;4.25;;;1.60;;
29242;SDS011;21110;48.036;15.780;2023-04-06T06:53:00;5.07;;;1.50;;
29242;SDS011;21110;48.036;15.780;2023-04-06T06:55:26;3.42;;;1.67;;
29242;SDS011;21110;48.036;15.780;2023-04-06T06:57:52;6.10;;;1.50;;
29242;SDS011;21110;48.036;15.780;2023-04-06T07:00:18;6.00;;;1.90;;
29242;SDS011;21110;48.036;15.780;2023-04-06T07:02:46;9.70;;;1.85;;
29242;SDS011;21110;48.036;15.780;2023-04-06T07:05:12;10.48;;;1.75;;
29242;SDS011;21110;48.036;15.780;2023-04-06T07:07:38;5.30;;;1.90;;
29242;SDS011;21110;48.036;15.780;2023-04-06T07:10:04;11.07;;;2.10;;
29242;SDS011;21110;48.036;15.780;2023-04-06T07:12:30;4.93;;;1.80;;
29242;SDS011;21110;48.036;15.780;2023-04-06T07:14:56;12.88;;;2.20;;
29242;SDS011;21110;48.036;15.780;2023-04-06T07:17:22;5.93;;;2.00;;
29242;SDS011;21110;48.036;15.780;2023-04-06T07:19:47;8.20;;;2.03;;
29242;SDS011;21110;48.036;15.780;2023-04-06T07:22:13;15.57;;;2.20;;
29242;SDS011;21110;48.036;15.780;2023-04-06T07:24:39;6.97;;;1.90;;
29242;SDS011;21110;48.036;15.780;2023-04-06T07:27:05;10.13;;;2.00;;
29242;SDS011;21110;48.036;15.780;2023-04-06T07:29:30;8.88;;;1.88;;
29242;SDS011;21110;48.036;15.780;2023-04-06T07:31:56;10.25;;;1.80;;
29242;SDS011;21110;48.036;15.780;2023-04-06T07:34:22;5.72;;;1.85;;
29242;SDS011;21110;48.036;15.780;2023-04-06T07:36:48;7.97;;;1.67;;
29242;SDS011;21110;48.036;15.780;2023-04-06T07:39:13;2.97;;;1.67;;
29242;SDS011;21110;48.036;15.780;2023-04-06T07:41:39;7.22;;;1.90;;
29242;SDS011;21110;48.036;15.780;2023-04-06T07:44:05;8.20;;;1.90;;
29242;SDS011;21110;48.036;15.780;2023-04-06T07:46:31;6.05;;;1.85;;
29242;SDS011;21110;48.036;15.780;2023-04-06T07:48:57;6.53;;;1.75;;
29242;SDS011;21110;48.036;15.780;2023-04-06T07:51:24;8.45;;;1.88;;
29242;SDS011;21110;48.036;15.780;2023-04-06T07:53:51;5.68;;;1.77;;
29242;SDS011;21110;48.036;15.780;2023-04-06T07:56:17;8.30;;;2.00;;
29242;SDS011;21110;48.036;15.780;2023-04-06T07:58:42;8.18;;;1.90;;
29242;SDS011;21110;48.036;15.780;2023-04-06T08:01:08;4.70;;;1.88;;
29242;SDS011;21110;48.036;15.780;2023-04-06T08:03:34;5.78;;;1.70;;
29242;SDS011;21110;48.036;15.780;2023-04-06T08:06:01;11.27;;;2.15;;
29242;SDS011;21110;48.036;15.780;2023-04-06T08:08:27;5.97;;;1.90;;
29242;SDS011;21110;48.036;15.780;2023-04-06T08:10:54;3.42;;;1.73;;
29242;SDS011;21110;48.036;15.780;2023-04-06T08:13:19;8.32;;;1.90;;
29242;SDS011;21110;48.036;15.780;2023-04-06T08:15:46;8.30;;;1.70;;
29242;SDS011;21110;48.036;15.780;2023-04-06T08:18:12;4.70;;;1.75;;
29242;SDS011;21110;48.036;15.780;2023-04-06T08:20:38;5.10;;;1.70;;
29242;SDS011;21110;48.036;15.780;2023-04-06T08:23:04;3.10;;;1.60;;
29242;SDS011;21110;48.036;15.780;2023-04-06T08:25:31;8.18;;;1.60;;
29242;SDS011;21110;48.036;15.780;2023-04-06T08:27:58;6.50;;;2.00;;
29242;SDS011;21110;48.036;15.780;2023-04-06T08:30:24;7.70;;;1.60;;
29242;SDS011;21110;48.036;15.780;2023-04-06T08:32:50;6.93;;;1.70;;
29242;SDS011;21110;48.036;15.780;2023-04-06T08:35:15;6.30;;;1.70;;
29242;SDS011;21110;48.036;15.780;2023-04-06T08:37:41;5.65;;;1.55;;
29242;SDS011;21110;48.036;15.780;2023-04-06T08:40:07;6.43;;;1.60;;
29242;SDS011;21110;48.036;15.780;2023-04-06T08:42:33;6.65;;;1.60;;
29242;SDS011;21110;48.036;15.780;2023-04-06T08:45:05;6.20;;;1.40;;
29242;SDS011;21110;48.036;15.780;2023-04-06T08:47:31;6.10;;;1.60;;
29242;SDS011;21110;48.036;15.780;2023-04-06T08:49:59;7.68;;;1.80;;
29242;SDS011;21110;48.036;15.780;2023-04-06T08:52:29;8.40;;;1.60;;
29242;SDS011;21110;48.036;15.780;2023-04-06T08:54:57;8.38;;;1.70;;
29242;SDS011;21110;48.036;15.780;2023-04-06T08:57:23;12.07;;;1.88;;
29242;SDS011;21110;48.036;15.780;2023-04-06T08:59:50;10.30;;;2.05;;
29242;SDS011;21110;48.036;15.780;2023-04-06T09:02:18;11.07;;;2.03;;
29242;SDS011;21110;48.036;15.780;2023-04-06T09:04:48;6.22;;;1.80;;
29242;SDS011;21110;48.036;15.780;2023-04-06T09:07:17;6.55;;;1.80;;
29242;SDS011;21110;48.036;15.780;2023-04-06T09:09:42;9.85;;;2.13;;
29242;SDS011;21110;48.036;15.780;2023-04-06T09:12:25;8.95;;;1.67;;
29242;SDS011;21110;48.036;15.780;2023-04-06T09:14:52;6.05;;;1.88;;
29242;SDS011;21110;48.036;15.780;2023-04-06T09:17:19;4.88;;;1.60;;
29242;SDS011;21110;48.036;15.780;2023-04-06T09:19:49;10.48;;;1.88;;
29242;SDS011;21110;48.036;15.780;2023-04-06T09:22:15;11.43;;;1.98;;
29242;SDS011;21110;48.036;15.780;2023-04-06T09:24:46;7.15;;;1.60;;
29242;SDS011;21110;48.036;15.780;2023-04-06T09:27:13;8.05;;;2.10;;
29242;SDS011;21110;48.036;15.780;2023-04-06T09:29:40;23.63;;;2.05;;
29242;SDS011;21110;48.036;15.780;2023-04-06T09:32:07;12.10;;;2.05;;
29242;SDS011;21110;48.036;15.780;2023-04-06T09:34:38;12.02;;;1.80;;
29242;SDS011;21110;48.036;15.780;2023-04-06T09:37:14;17.13;;;2.08;;
29242;SDS011;21110;48.036;15.780;2023-04-06T09:39:40;5.53;;;1.70;;
29242;SDS011;21110;48.036;15.780;2023-04-06T09:42:06;7.68;;;1.65;;
29242;SDS011;21110;48.036;15.780;2023-04-06T09:44:32;6.70;;;1.58;;
29242;SDS011;21110;48.036;15.780;2023-04-06T09:46:58;27.27;;;2.15;;
29242;SDS011;21110;48.036;15.780;2023-04-06T09:49:24;58.65;;;3.38;;
29242;SDS011;21110;48.036;15.780;2023-04-06T09:52:13;40.25;;;2.85;;
29242;SDS011;21110;48.036;15.780;2023-04-06T09:54:39;28.27;;;2.75;;
29242;SDS011;21110;48.036;15.780;2023-04-06T10:00:06;28.00;;;2.45;;
29242;SDS011;21110;48.036;15.780;2023-04-06T10:07:53;23.02;;;2.20;;
29242;SDS011;21110;48.036;15.780;2023-04-06T10:10:23;27.05;;;2.15;;
29242;SDS011;21110;48.036;15.780;2023-04-06T10:12:48;15.30;;;1.95;;
29242;SDS011;21110;48.036;15.780;2023-04-06T10:15:15;16.98;;;2.10;;
29242;SDS011;21110;48.036;15.780;2023-04-06T10:17:41;15.18;;;1.90;;
29242;SDS011;21110;48.036;15.780;2023-04-06T10:20:08;8.57;;;1.90;;
29242;SDS011;21110;48.036;15.780;2023-04-06T10:22:47;9.77;;;1.90;;
29242;SDS011;21110;48.036;15.780;2023-04-06T10:25:27;12.98;;;1.83;;
29242;SDS011;21110;48.036;15.780;2023-04-06T10:30:27;7.90;;;1.80;;
29242;SDS011;21110;48.036;15.780;2023-04-06T10:32:54;12.07;;;1.80;;
29242;SDS011;21110;48.036;15.780;2023-04-06T10:35:20;9.10;;;1.50;;
29242;SDS011;21110;48.036;15.780;2023-04-06T10:37:46;11.48;;;1.60;;
29242;SDS011;21110;48.036;15.780;2023-04-06T10:42:45;7.63;;;1.80;;
29242;SDS011;21110;48.036;15.780;2023-04-06T10:45:24;7.95;;;1.65;;
29242;SDS011;21110;48.036;15.780;2023-04-06T10:47:54;3.08;;;1.58;;
29242;SDS011;21110;48.036;15.780;2023-04-06T10:50:21;6.22;;;1.60;;
29242;SDS011;21110;48.036;15.780;2023-04-06T10:52:47;10.13;;;1.50;;
29242;SDS011;21110;48.036;15.780;2023-04-06T10:55:27;5.78;;;1.60;;
29242;SDS011;21110;48.036;15.780;2023-04-06T10:57:54;7.97;;;1.45;;
29242;SDS011;21110;48.036;15.780;2023-04-06T11:00:20;8.60;;;1.60;;
29242;SDS011;21110;48.036;15.780;2023-04-06T11:02:46;6.32;;;1.83;;
29242;SDS011;21110;48.036;15.780;2023-04-06T11:05:13;7.65;;;1.77;;
29242;SDS011;21110;48.036;15.780;2023-04-06T11:07:40;5.97;;;1.60;;
29242;SDS011;21110;48.036;15.780;2023-04-06T11:10:09;11.25;;;1.50;;
29242;SDS011;21110;48.036;15.780;2023-04-06T11:12:35;13.02;;;1.90;;
29242;SDS011;21110;48.036;15.780;2023-04-06T11:15:01;10.57;;;1.75;;
29242;SDS011;21110;48.036;15.780;2023-04-06T11:17:34;6.05;;;1.42;;
29242;SDS011;21110;48.036;15.780;2023-04-06T11:20:01;10.30;;;1.92;;
29242;SDS011;21110;48.036;15.780;2023-04-06T11:22:29;10.45;;;2.10;;
29242;SDS011;21110;48.036;15.780;2023-04-06T11:25:07;9.10;;;1.92;;
29242;SDS011;21110;48.036;15.780;2023-04-06T11:27:34;12.65;;;2.38;;
29242;SDS011;21110;48.036;15.780;2023-04-06T11:30:01;9.27;;;2.00;;
29242;SDS011;21110;48.036;15.780;2023-04-06T11:32:27;10.63;;;2.05;;
29242;SDS011;21110;48.036;15.780;2023-04-06T11:34:53;10.07;;;1.90;;
29242;SDS011;21110;48.036;15.780;2023-04-06T11:37:19;11.18;;;2.20;;
29242;SDS011;21110;48.036;15.780;2023-04-06T11:39:49;8.50;;;2.25;;
29242;SDS011;21110;48.036;15.780;2023-04-06T11:44:55;22.33;;;2.60;;
29242;SDS011;21110;48.036;15.780;2023-04-06T11:47:28;10.70;;;2.42;;
29242;SDS011;21110;48.036;15.780;2023-04-06T11:49:56;11.95;;;2.15;;
29242;SDS011;21110;48.036;15.780;2023-04-06T11:52:30;15.02;;;2.47;;
29242;SDS011;21110;48.036;15.780;2023-04-06T11:54:56;15.60;;;2.75;;
29242;SDS011;21110;48.036;15.780;2023-04-06T11:57:22;18.00;;;2.60;;
29242;SDS011;21110;48.036;15.780;2023-04-06T11:59:50;10.68;;;2.50;;
29242;SDS011;21110;48.036;15.780;2023-04-06T12:02:16;12.13;;;2.67;;
29242;SDS011;21110;48.036;15.780;2023-04-06T12:04:42;14.23;;;2.85;;
29242;SDS011;21110;48.036;15.780;2023-04-06T12:07:08;12.27;;;2.65;;
29242;SDS011;21110;48.036;15.780;2023-04-06T12:09:34;11.57;;;2.42;;
29242;SDS011;21110;48.036;15.780;2023-04-06T12:12:01;13.45;;;2.58;;
29242;SDS011;21110;48.036;15.780;2023-04-06T12:14:27;8.98;;;2.42;;
29242;SDS011;21110;48.036;15.780;2023-04-06T12:16:52;15.27;;;2.88;;
29242;SDS011;21110;48.036;15.780;2023-04-06T12:19:18;9.40;;;2.33;;
29242;SDS011;21110;48.036;15.780;2023-04-06T12:21:44;18.65;;;2.40;;
29242;SDS011;21110;48.036;15.780;2023-04-06T12:24:09;14.80;;;2.70;;
29242;SDS011;21110;48.036;15.780;2023-04-06T12:26:35;18.63;;;3.05;;
29242;SDS011;21110;48.036;15.780;2023-04-06T12:29:02;17.77;;;2.50;;
29242;SDS011;21110;48.036;15.780;2023-04-06T12:31:32;16.15;;;2.40;;
29242;SDS011;21110;48.036;15.780;2023-04-06T12:33:59;15.05;;;2.40;;
29242;SDS011;21110;48.036;15.780;2023-04-06T12:36:27;13.90;;;2.80;;
29242;SDS011;21110;48.036;15.780;2023-04-06T12:38:52;12.57;;;2.65;;
29242;SDS011;21110;48.036;15.780;2023-04-06T12:41:18;22.48;;;2.75;;
29242;SDS011;21110;48.036;15.780;2023-04-06T12:43:45;12.38;;;2.38;;
29242;SDS011;21110;48.036;15.780;2023-04-06T12:46:11;13.18;;;2.85;;
29242;SDS011;21110;48.036;15.780;2023-04-06T12:48:37;9.88;;;2.80;;
29242;SDS011;21110;48.036;15.780;2023-04-06T12:51:04;20.65;;;2.70;;
29242;SDS011;21110;48.036;15.780;2023-04-06T12:53:31;16.00;;;2.60;;
29242;SDS011;21110;48.036;15.780;2023-04-06T12:55:58;12.85;;;2.85;;
29242;SDS011;21110;48.036;15.780;2023-04-06T12:58:24;9.65;;;2.38;;
29242;SDS011;21110;48.036;15.780;2023-04-06T13:00:54;13.52;;;2.45;;
29242;SDS011;21110;48.036;15.780;2023-04-06T13:03:22;11.15;;;2.58;;
29242;SDS011;21110;48.036;15.780;2023-04-06T13:05:49;10.88;;;2.47;;
29242;SDS011;21110;48.036;15.780;2023-04-06T13:08:15;11.90;;;2.40;;
29242;SDS011;21110;48.036;15.780;2023-04-06T13:10:43;16.13;;;2.95;;
29242;SDS011;21110;48.036;15.780;2023-04-06T13:13:13;8.40;;;2.50;;
29242;SDS011;21110;48.036;15.780;2023-04-06T13:15:39;8.55;;;2.47;;
29242;SDS011;21110;48.036;15.780;2023-04-06T13:18:06;9.18;;;2.58;;
29242;SDS011;21110;48.036;15.780;2023-04-06T13:20:32;12.75;;;2.80;;
29242;SDS011;21110;48.036;15.780;2023-04-06T13:22:58;7.75;;;2.38;;
29242;SDS011;21110;48.036;15.780;2023-04-06T13:25:24;12.20;;;2.70;;
29242;SDS011;21110;48.036;15.780;2023-04-06T13:27:50;12.95;;;2.58;;
29242;SDS011;21110;48.036;15.780;2023-04-06T13:30:15;15.35;;;2.80;;
29242;SDS011;21110;48.036;15.780;2023-04-06T13:32:41;14.13;;;2.92;;
29242;SDS011;21110;48.036;15.780;2023-04-06T13:35:07;17.08;;;2.65;;
29242;SDS011;21110;48.036;15.780;2023-04-06T13:37:33;13.45;;;2.50;;
29242;SDS011;21110;48.036;15.780;2023-04-06T13:39:59;9.05;;;2.67;;
29242;SDS011;21110;48.036;15.780;2023-04-06T13:42:27;9.98;;;2.38;;
29242;SDS011;21110;48.036;15.780;2023-04-06T13:44:52;10.95;;;2.53;;
29242;SDS011;21110;48.036;15.780;2023-04-06T13:47:18;9.57;;;2.30;;
29242;SDS011;21110;48.036;15.780;2023-04-06T13:49:45;8.90;;;2.45;;
29242;SDS011;21110;48.036;15.780;2023-04-06T13:52:11;6.38;;;2.15;;
29242;SDS011;21110;48.036;15.780;2023-04-06T13:54:37;8.80;;;2.35;;
29242;SDS011;21110;48.036;15.780;2023-04-06T13:57:03;9.73;;;2.50;;
29242;SDS011;21110;48.036;15.780;2023-04-06T13:59:33;10.48;;;2.30;;
29242;SDS011;21110;48.036;15.780;2023-04-06T14:02:00;9.13;;;2.47;;
29242;SDS011;21110;48.036;15.780;2023-04-06T14:04:29;5.93;;;2.40;;
29242;SDS011;21110;48.036;15.780;2023-04-06T14:06:56;10.48;;;2.65;;
29242;SDS011;21110;48.036;15.780;2023-04-06T14:09:22;9.15;;;2.78;;
29242;SDS011;21110;48.036;15.780;2023-04-06T14:11:48;8.23;;;2.40;;
29242;SDS011;21110;48.036;15.780;2023-04-06T14:14:14;8.07;;;2.28;;
29242;SDS011;21110;48.036;15.780;2023-04-06T14:16:41;6.10;;;2.40;;
29242;SDS011;21110;48.036;15.780;2023-04-06T14:19:10;8.75;;;2.47;;
29242;SDS011;21110;48.036;15.780;2023-04-06T14:21:39;6.28;;;2.20;;
29242;SDS011;21110;48.036;15.780;2023-04-06T14:24:06;8.77;;;2.45;;
29242;SDS011;21110;48.036;15.780;2023-04-06T14:26:32;7.80;;;2.60;;
29242;SDS011;21110;48.036;15.780;2023-04-06T14:29:01;7.18;;;2.25;;
29242;SDS011;21110;48.036;15.780;2023-04-06T14:31:27;5.90;;;2.05;;
29242;SDS011;21110;48.036;15.780;2023-04-06T14:33:53;4.40;;;2.20;;
29242;SDS011;21110;48.036;15.780;2023-04-06T14:36:18;5.43;;;2.10;;
29242;SDS011;21110;48.036;15.780;2023-04-06T14:38:44;6.43;;;2.10;;
29242;SDS011;21110;48.036;15.780;2023-04-06T14:41:18;5.80;;;2.20;;
29242;SDS011;21110;48.036;15.780;2023-04-06T14:43:45;7.40;;;2.10;;